Time;durP1;ratioP1;P1;durP2;ratioP2;P2;SDS_P1;SDS_P2;PMS_P1;PMS_P2;Temp;Humidity;BMP_temperature;BMP_pressure;BME280_temperature;BME280_humidity;BME280_pressure;Samples;Min_cycle;Max_cycle;Signal;HPM_P1;HPM_P2
2022/12/23 00:01:52;;;;;;;;;;;19.30;45.20;;;;;;5072928;28;20028;-69
2022/12/23 00:04:19;;;;;;;;;;;19.30;45.20;;;;;;5063471;28;19981;-70
2022/12/23 00:06:46;;;;;;;;;;;19.30;45.20;;;;;;5077887;28;19924;-70
2022/12/23 00:09:13;;;;;;;;;;;19.30;45.20;;;;;;5055691;28;19959;-70
2022/12/23 00:15:04;;;;;;;;;;;19.30;45.20;;;;;;5055856;28;19920;-70
2022/12/23 00:17:13;;;;;;;;;;;19.30;45.30;;;;;;5086564;28;19972;-69
2022/12/23 00:19:40;;;;;;;;;;;19.30;45.30;;;;;;5055571;28;19920;-68
2022/12/23 00:22:07;;;;;;;;;;;19.30;45.30;;;;;;5054824;28;19987;-70
2022/12/23 00:24:34;;;;;;;;;;;19.30;45.30;;;;;;5085070;28;19927;-70
2022/12/23 00:27:01;;;;;;;;;;;19.30;45.30;;;;;;5076799;28;19920;-70
2022/12/23 00:29:27;;;;;;;;;;;19.30;45.30;;;;;;5064920;28;19928;-70
2022/12/23 00:31:54;;;;;;;;;;;19.30;45.30;;;;;;5073170;28;19986;-69
2022/12/23 00:34:22;;;;;;;;;;;19.30;45.50;;;;;;5067415;28;19920;-71
2022/12/23 00:36:49;;;;;;;;;;;19.30;45.30;;;;;;5092390;28;19974;-70
2022/12/23 00:44:44;;;;;;;;;;;19.30;45.40;;;;;;5084585;28;19951;-70
2022/12/23 00:49:40;;;;;;;;;;;19.30;45.40;;;;;;5067428;28;19929;-69
2022/12/23 00:49:59;;;;;;;;;;;19.30;45.40;;;;;;5072608;28;20562;-70
2022/12/23 00:52:26;;;;;;;;;;;19.30;45.40;;;;;;5061918;28;19952;-70
2022/12/23 00:54:53;;;;;;;;;;;19.30;45.40;;;;;;5092956;28;20366;-70
2022/12/23 00:57:19;;;;;;;;;;;19.30;45.40;;;;;;5070265;28;19976;-70
2022/12/23 00:59:46;;;;;;;;;;;19.30;45.40;;;;;;5086074;28;19920;-70
2022/12/23 01:07:42;;;;;;;;;;;19.30;45.40;;;;;;5062598;28;19921;-69
2022/12/23 01:10:09;;;;;;;;;;;19.30;45.40;;;;;;5054759;28;19925;-70
2022/12/23 01:12:36;;;;;;;;;;;19.30;45.40;;;;;;5054388;28;19925;-70
2022/12/23 01:15:03;;;;;;;;;;;19.30;45.40;;;;;;5072815;28;19927;-69
2022/12/23 01:17:30;;;;;;;;;;;19.30;45.40;;;;;;5058755;28;19924;-70
2022/12/23 01:19:56;;;;;;;;;;;19.30;45.40;;;;;;5071776;28;19920;-70
2022/12/23 01:22:23;;;;;;;;;;;19.30;45.40;;;;;;5053289;28;20390;-70
2022/12/23 01:24:51;;;;;;;;;;;19.30;45.40;;;;;;5059405;28;19920;-69
2022/12/23 01:27:18;;;;;;;;;;;19.30;45.50;;;;;;5071076;28;19977;-70
2022/12/23 01:29:45;;;;;;;;;;;19.30;45.40;;;;;;5087652;28;19950;-70
2022/12/23 01:32:12;;;;;;;;;;;19.30;45.50;;;;;;5070906;28;19947;-70
2022/12/23 01:34:39;;;;;;;;;;;19.30;45.50;;;;;;5075620;28;19982;-70
2022/12/23 01:37:06;;;;;;;;;;;19.30;45.50;;;;;;5061362;28;19924;-70
2022/12/23 01:39:32;;;;;;;;;;;19.30;45.50;;;;;;5060028;28;19924;-70
2022/12/23 01:44:54;;;;;;;;;;;19.30;45.50;;;;;;5070442;28;20007;-70
2022/12/23 01:47:26;;;;;;;;;;;19.30;45.50;;;;;;5064427;28;19920;-70
2022/12/23 01:49:53;;;;;;;;;;;19.30;45.50;;;;;;5077350;28;19920;-70
2022/12/23 01:52:20;;;;;;;;;;;19.30;45.50;;;;;;5078540;28;19927;-70
2022/12/23 01:54:47;;;;;;;;;;;19.30;45.50;;;;;;5065157;28;19939;-69
2022/12/23 01:57:15;;;;;;;;;;;19.30;45.50;;;;;;5066370;28;19924;-69
2022/12/23 02:05:10;;;;;;;;;;;19.30;45.50;;;;;;5066829;28;20277;-70
2022/12/23 02:10:21;;;;;;;;;;;19.30;45.50;;;;;;5069709;28;20054;-70
2022/12/23 02:12:50;;;;;;;;;;;19.30;45.50;;;;;;5073087;28;19973;-70
2022/12/23 02:18:23;;;;;;;;;;;19.30;45.60;;;;;;5060360;28;19982;-69
2022/12/23 02:21:05;;;;;;;;;;;19.30;45.60;;;;;;5058822;28;19959;-70
2022/12/23 02:23:49;;;;;;;;;;;19.30;45.60;;;;;;5066206;28;19970;-70
2022/12/23 02:26:28;;;;;;;;;;;19.30;45.60;;;;;;5068679;28;19974;-70
2022/12/23 02:29:09;;;;;;;;;;;19.30;45.60;;;;;;5066222;28;20418;-69
2022/12/23 02:31:38;;;;;;;;;;;19.30;45.60;;;;;;5068844;28;19955;-69
2022/12/23 02:34:07;;;;;;;;;;;19.30;45.50;;;;;;5077700;28;19978;-70
2022/12/23 02:36:36;;;;;;;;;;;19.30;45.60;;;;;;5069858;28;19969;-69
2022/12/23 02:39:05;;;;;;;;;;;19.30;45.60;;;;;;5067089;28;19924;-70
2022/12/23 02:41:34;;;;;;;;;;;19.30;45.50;;;;;;5067371;28;19940;-69
2022/12/23 02:44:02;;;;;;;;;;;19.30;45.60;;;;;;5079736;28;20337;-70
2022/12/23 02:46:30;;;;;;;;;;;19.30;45.50;;;;;;5055969;28;19993;-70
2022/12/23 02:49:00;;;;;;;;;;;19.30;45.60;;;;;;5052142;28;20342;-70
2022/12/23 02:51:28;;;;;;;;;;;19.30;45.60;;;;;;5051855;28;19921;-69
2022/12/23 02:53:55;;;;;;;;;;;19.30;45.60;;;;;;5068914;28;19920;-70
2022/12/23 02:56:22;;;;;;;;;;;19.30;45.60;;;;;;5065592;28;19973;-70
2022/12/23 02:58:50;;;;;;;;;;;19.30;46.20;;;;;;5085300;28;19928;-69
2022/12/23 03:01:16;;;;;;;;;;;19.30;45.60;;;;;;5052575;28;19927;-70
2022/12/23 03:03:43;;;;;;;;;;;19.30;45.60;;;;;;5077881;28;19920;-70
2022/12/23 03:06:15;;;;;;;;;;;19.30;45.60;;;;;;5070387;28;19920;-69
2022/12/23 03:08:42;;;;;;;;;;;19.30;45.60;;;;;;5073796;28;19925;-69
2022/12/23 03:11:10;;;;;;;;;;;19.30;45.60;;;;;;5070585;28;19925;-69
2022/12/23 03:13:49;;;;;;;;;;;19.30;45.60;;;;;;5083201;28;19924;-70
2022/12/23 03:16:19;;;;;;;;;;;19.30;45.60;;;;;;5067867;28;19919;-70
2022/12/23 03:18:48;;;;;;;;;;;19.30;45.60;;;;;;5073408;28;19977;-70
2022/12/23 03:21:17;;;;;;;;;;;19.30;45.60;;;;;;5060750;28;19921;-69
2022/12/23 03:23:45;;;;;;;;;;;19.30;45.60;;;;;;5075036;28;19924;-70
2022/12/23 03:26:12;;;;;;;;;;;19.30;45.60;;;;;;5086138;28;20037;-70
2022/12/23 03:28:39;;;;;;;;;;;19.30;45.60;;;;;;5071537;28;19967;-69
2022/12/23 03:31:07;;;;;;;;;;;19.30;45.60;;;;;;5059233;28;19920;-69
2022/12/23 03:33:35;;;;;;;;;;;19.30;45.60;;;;;;5072930;28;19924;-70
2022/12/23 03:36:03;;;;;;;;;;;19.30;45.60;;;;;;5098250;28;19923;-70
2022/12/23 03:38:31;;;;;;;;;;;19.30;45.60;;;;;;5075444;28;19924;-70
2022/12/23 03:40:58;;;;;;;;;;;19.30;45.60;;;;;;5080529;28;19949;-70
2022/12/23 03:43:26;;;;;;;;;;;19.30;45.60;;;;;;5079389;28;19927;-69
2022/12/23 03:45:55;;;;;;;;;;;19.30;45.60;;;;;;5073617;28;19963;-69
2022/12/23 03:48:22;;;;;;;;;;;19.30;45.60;;;;;;5072352;28;19970;-70
2022/12/23 03:50:51;;;;;;;;;;;19.30;45.70;;;;;;5091056;28;19973;-69
2022/12/23 03:53:19;;;;;;;;;;;19.30;45.60;;;;;;5077674;28;19959;-70
2022/12/23 03:55:48;;;;;;;;;;;19.30;45.60;;;;;;5058617;28;19920;-69
2022/12/23 03:58:17;;;;;;;;;;;19.30;45.70;;;;;;5069955;28;19920;-69
2022/12/23 04:00:45;;;;;;;;;;;19.30;45.70;;;;;;5059965;28;19994;-69
2022/12/23 04:03:14;;;;;;;;;;;19.30;45.70;;;;;;5084993;28;19920;-70
2022/12/23 04:05:41;;;;;;;;;;;19.30;45.60;;;;;;5069366;28;19925;-69
2022/12/23 04:08:10;;;;;;;;;;;19.30;45.60;;;;;;5074356;28;19920;-69
2022/12/23 04:10:37;;;;;;;;;;;19.30;45.70;;;;;;5058273;28;19927;-69
2022/12/23 04:13:05;;;;;;;;;;;19.30;45.60;;;;;;5092215;28;20266;-70
2022/12/23 04:15:32;;;;;;;;;;;19.30;45.70;;;;;;5072848;28;19928;-69
2022/12/23 04:17:58;;;;;;;;;;;19.30;45.70;;;;;;5076237;28;19929;-70
2022/12/23 04:20:25;;;;;;;;;;;19.30;45.70;;;;;;5083516;28;20375;-69
2022/12/23 04:22:52;;;;;;;;;;;19.30;45.70;;;;;;5057170;28;19970;-70
2022/12/23 04:25:19;;;;;;;;;;;19.30;45.70;;;;;;5087689;28;19924;-69
2022/12/23 04:27:45;;;;;;;;;;;19.30;45.70;;;;;;5089890;28;20001;-69
2022/12/23 04:30:17;;;;;;;;;;;19.30;45.70;;;;;;5060466;28;19965;-70
2022/12/23 04:32:44;;;;;;;;;;;19.30;45.70;;;;;;5066263;28;19932;-69
2022/12/23 04:35:11;;;;;;;;;;;19.30;46.20;;;;;;5061076;28;19927;-69
2022/12/23 04:37:38;;;;;;;;;;;19.30;45.70;;;;;;5064201;28;20017;-70
2022/12/23 04:40:05;;;;;;;;;;;19.30;45.70;;;;;;5077017;28;19965;-70
2022/12/23 04:42:32;;;;;;;;;;;19.30;45.70;;;;;;5054939;28;20304;-70
2022/12/23 04:44:59;;;;;;;;;;;19.30;45.70;;;;;;5067349;28;20005;-70
2022/12/23 04:47:27;;;;;;;;;;;19.30;46.20;;;;;;5093277;28;20326;-70
2022/12/23 04:49:53;;;;;;;;;;;19.30;45.70;;;;;;5074679;28;19963;-70
2022/12/23 04:52:20;;;;;;;;;;;19.30;45.70;;;;;;5065525;28;20019;-70
2022/12/23 04:54:47;;;;;;;;;;;19.30;45.70;;;;;;5076057;28;19965;-70
2022/12/23 04:57:14;;;;;;;;;;;19.30;45.70;;;;;;5069787;28;19956;-70
2022/12/23 04:59:41;;;;;;;;;;;19.30;45.70;;;;;;5072768;28;19924;-69
2022/12/23 05:02:08;;;;;;;;;;;19.30;46.00;;;;;;5070210;28;19920;-69
2022/12/23 05:04:37;;;;;;;;;;;19.30;45.70;;;;;;5062422;28;19938;-70
2022/12/23 05:07:03;;;;;;;;;;;19.30;45.70;;;;;;5058047;28;20353;-70
2022/12/23 05:09:31;;;;;;;;;;;19.30;45.70;;;;;;5081162;28;19990;-70
2022/12/23 05:11:57;;;;;;;;;;;19.30;45.70;;;;;;5058043;28;19920;-69
2022/12/23 05:14:24;;;;;;;;;;;19.30;45.70;;;;;;5086532;28;19928;-69
2022/12/23 05:16:51;;;;;;;;;;;19.30;45.60;;;;;;5072375;28;19925;-70
2022/12/23 05:19:18;;;;;;;;;;;19.30;45.60;;;;;;5074747;28;19926;-71
2022/12/23 05:21:50;;;;;;;;;;;19.30;45.70;;;;;;5054467;28;20173;-70
2022/12/23 05:24:16;;;;;;;;;;;19.30;45.60;;;;;;5055031;28;19978;-71
2022/12/23 05:26:46;;;;;;;;;;;19.30;45.70;;;;;;5060257;28;19920;-70
2022/12/23 05:29:15;;;;;;;;;;;19.30;45.70;;;;;;5068878;28;19920;-71
2022/12/23 05:31:42;;;;;;;;;;;19.30;45.70;;;;;;5086798;28;19921;-71
2022/12/23 05:34:09;;;;;;;;;;;19.30;45.70;;;;;;5059003;28;19994;-70
2022/12/23 05:36:37;;;;;;;;;;;19.30;45.70;;;;;;5067363;28;20599;-70
2022/12/23 05:39:06;;;;;;;;;;;19.30;45.70;;;;;;5066420;28;19920;-70
2022/12/23 05:41:32;;;;;;;;;;;19.30;45.70;;;;;;5061447;28;19953;-70
2022/12/23 05:43:59;;;;;;;;;;;19.30;45.70;;;;;;5062039;28;19924;-71
2022/12/23 05:46:26;;;;;;;;;;;19.30;45.70;;;;;;5077134;28;19924;-71
2022/12/23 05:48:53;;;;;;;;;;;19.30;45.70;;;;;;5053139;28;20351;-70
2022/12/23 05:51:21;;;;;;;;;;;19.30;45.70;;;;;;5052696;28;19951;-71
2022/12/23 05:53:48;;;;;;;;;;;19.30;45.70;;;;;;5066938;28;19928;-71
2022/12/23 05:56:16;;;;;;;;;;;19.30;45.70;;;;;;5053439;28;19990;-71
2022/12/23 05:58:42;;;;;;;;;;;19.30;45.70;;;;;;5072259;28;19921;-70
2022/12/23 06:01:09;;;;;;;;;;;19.30;45.70;;;;;;5066698;28;20349;-70
2022/12/23 06:03:36;;;;;;;;;;;19.30;45.70;;;;;;5059109;28;19920;-70
2022/12/23 06:06:03;;;;;;;;;;;19.30;45.70;;;;;;5063448;28;19932;-71
2022/12/23 06:08:36;;;;;;;;;;;19.30;45.70;;;;;;5054704;28;19920;-70
2022/12/23 06:11:04;;;;;;;;;;;19.30;45.70;;;;;;5059961;28;19920;-71
2022/12/23 06:13:32;;;;;;;;;;;19.30;45.70;;;;;;5082854;28;20290;-71
2022/12/23 06:15:59;;;;;;;;;;;19.30;45.70;;;;;;5058673;28;19977;-70
2022/12/23 06:18:25;;;;;;;;;;;19.30;45.70;;;;;;5060637;28;19931;-71
2022/12/23 06:20:52;;;;;;;;;;;19.30;45.70;;;;;;5075997;28;19924;-70
2022/12/23 06:23:19;;;;;;;;;;;19.30;45.70;;;;;;5071362;28;20373;-69
2022/12/23 06:25:46;;;;;;;;;;;19.30;45.70;;;;;;5075453;28;19928;-71
2022/12/23 06:28:15;;;;;;;;;;;19.30;45.70;;;;;;5067524;28;19928;-70
2022/12/23 06:30:43;;;;;;;;;;;19.30;45.70;;;;;;5073277;28;19924;-71
2022/12/23 06:33:10;;;;;;;;;;;19.30;45.70;;;;;;5055909;28;19920;-69
2022/12/23 06:35:36;;;;;;;;;;;19.30;45.70;;;;;;5082643;28;19927;-70
2022/12/23 06:38:03;;;;;;;;;;;19.30;45.70;;;;;;5085686;28;19927;-70
2022/12/23 06:40:30;;;;;;;;;;;19.30;45.70;;;;;;5057133;28;19921;-70
2022/12/23 06:42:57;;;;;;;;;;;19.30;45.70;;;;;;5066645;28;19928;-70
2022/12/23 06:45:24;;;;;;;;;;;19.30;45.70;;;;;;5076502;28;19935;-70
2022/12/23 06:47:52;;;;;;;;;;;19.30;45.70;;;;;;5077429;28;20041;-70
2022/12/23 06:50:19;;;;;;;;;;;19.30;45.70;;;;;;5084098;28;19924;-70
2022/12/23 06:52:47;;;;;;;;;;;19.30;45.70;;;;;;5076234;28;19920;-70
2022/12/23 06:55:14;;;;;;;;;;;19.30;45.70;;;;;;5074110;28;19924;-70
2022/12/23 06:57:41;;;;;;;;;;;19.30;45.70;;;;;;5061484;28;19928;-70
2022/12/23 07:00:08;;;;;;;;;;;19.30;45.70;;;;;;5067955;28;19978;-70
2022/12/23 07:02:35;;;;;;;;;;;19.30;45.70;;;;;;5062739;28;19989;-70
2022/12/23 07:05:03;;;;;;;;;;;19.30;45.70;;;;;;5078118;28;19928;-69
2022/12/23 07:07:31;;;;;;;;;;;19.30;45.70;;;;;;5078116;28;19973;-69
2022/12/23 07:09:58;;;;;;;;;;;19.30;45.70;;;;;;5072997;28;19928;-71
2022/12/23 07:12:25;;;;;;;;;;;19.30;45.70;;;;;;5078545;28;19973;-69
2022/12/23 07:14:52;;;;;;;;;;;19.30;46.30;;;;;;5085089;28;19923;-69
2022/12/23 07:17:19;;;;;;;;;;;19.30;45.70;;;;;;5074894;28;19960;-69
2022/12/23 07:19:45;;;;;;;;;;;19.30;45.70;;;;;;5095165;28;19920;-70
2022/12/23 07:22:14;;;;;;;;;;;19.30;45.70;;;;;;5094995;28;19928;-70
2022/12/23 07:24:40;;;;;;;;;;;19.30;45.70;;;;;;5085819;28;19932;-70
2022/12/23 07:27:07;;;;;;;;;;;19.30;45.70;;;;;;5092961;28;19950;-69
2022/12/23 07:29:34;;;;;;;;;;;19.30;45.70;;;;;;5093693;28;20035;-70
2022/12/23 07:32:01;;;;;;;;;;;19.30;46.30;;;;;;5083626;28;19920;-69
2022/12/23 07:34:28;;;;;;;;;;;19.30;45.70;;;;;;5073660;28;19965;-70
2022/12/23 07:36:55;;;;;;;;;;;19.30;45.70;;;;;;5091561;28;19920;-70
2022/12/23 07:39:23;;;;;;;;;;;19.30;45.70;;;;;;5093770;28;19932;-70
2022/12/23 07:41:50;;;;;;;;;;;19.30;45.70;;;;;;5074005;28;19947;-70
2022/12/23 07:44:16;;;;;;;;;;;19.30;45.70;;;;;;5077631;28;19924;-70
2022/12/23 07:46:43;;;;;;;;;;;19.30;45.70;;;;;;5077561;28;19920;-72
2022/12/23 07:49:10;;;;;;;;;;;19.30;45.70;;;;;;5089139;28;20486;-69
2022/12/23 07:51:37;;;;;;;;;;;19.30;45.70;;;;;;5069093;28;19923;-70
2022/12/23 07:54:03;;;;;;;;;;;19.30;45.70;;;;;;5079857;28;19970;-69
2022/12/23 07:56:32;;;;;;;;;;;19.30;45.70;;;;;;5074221;28;19955;-70
2022/12/23 07:58:59;;;;;;;;;;;19.30;45.70;;;;;;5072266;28;20329;-60
2022/12/23 08:01:25;;;;;;;;;;;19.20;45.60;;;;;;5075982;28;20002;-61
2022/12/23 08:03:52;;;;;;;;;;;19.30;45.60;;;;;;5077222;28;19924;-61
2022/12/23 08:06:19;;;;;;;;;;;19.30;45.50;;;;;;5069516;28;19924;-61
2022/12/23 08:08:46;;;;;;;;;;;19.20;45.30;;;;;;5076965;28;19958;-61
2022/12/23 08:11:13;;;;;;;;;;;19.30;45.20;;;;;;5075608;28;20377;-61
2022/12/23 08:13:41;;;;;;;;;;;19.20;44.90;;;;;;5075959;28;19932;-63
2022/12/23 08:16:08;;;;;;;;;;;19.20;44.60;;;;;;5077190;28;19919;-62
2022/12/23 08:18:36;;;;;;;;;;;19.20;44.40;;;;;;5075256;28;19924;-62
2022/12/23 08:21:04;;;;;;;;;;;19.20;44.10;;;;;;5079093;28;19931;-62
2022/12/23 08:23:30;;;;;;;;;;;19.10;43.80;;;;;;5070010;28;19961;-61
2022/12/23 08:26:01;;;;;;;;;;;19.10;43.70;;;;;;5072059;28;19924;-62
2022/12/23 08:28:28;;;;;;;;;;;19.10;43.50;;;;;;5064688;28;20069;-61
2022/12/23 08:31:02;;;;;;;;;;;19.10;43.50;;;;;;5067588;28;19928;-62
2022/12/23 08:33:28;;;;;;;;;;;19.00;43.30;;;;;;5069216;28;19924;-62
2022/12/23 08:35:55;;;;;;;;;;;19.00;43.20;;;;;;5067637;28;20316;-62
2022/12/23 08:38:22;;;;;;;;;;;19.00;43.20;;;;;;5077652;28;19955;-62
2022/12/23 08:40:49;;;;;;;;;;;19.00;43.10;;;;;;5071834;28;19920;-62
2022/12/23 08:43:16;;;;;;;;;;;19.00;43.10;;;;;;5083892;28;19927;-62
2022/12/23 08:45:42;;;;;;;;;;;18.90;43.00;;;;;;5072116;28;20504;-62
2022/12/23 08:48:10;;;;;;;;;;;18.90;43.00;;;;;;5065002;28;19920;-62
2022/12/23 08:50:38;;;;;;;;;;;18.90;42.90;;;;;;5072081;28;19946;-62
2022/12/23 08:53:04;;;;;;;;;;;18.90;42.90;;;;;;5061490;28;20011;-62
2022/12/23 08:55:32;;;;;;;;;;;18.80;42.80;;;;;;5077845;28;20002;-62
2022/12/23 08:57:59;;;;;;;;;;;18.90;42.80;;;;;;5071374;28;20366;-62
2022/12/23 09:00:25;;;;;;;;;;;18.80;42.60;;;;;;5062422;28;20005;-62
2022/12/23 09:02:52;;;;;;;;;;;18.80;42.70;;;;;;5058823;28;19929;-61
2022/12/23 09:05:20;;;;;;;;;;;18.80;42.70;;;;;;5065114;28;19920;-73
2022/12/23 09:07:47;;;;;;;;;;;18.80;42.60;;;;;;5059690;28;19920;-72
2022/12/23 09:10:14;;;;;;;;;;;18.80;42.70;;;;;;5069285;28;19927;-73
2022/12/23 09:12:41;;;;;;;;;;;18.80;42.80;;;;;;5064781;28;19920;-70
2022/12/23 09:15:08;;;;;;;;;;;18.80;42.80;;;;;;5069210;28;19920;-70
2022/12/23 09:17:35;;;;;;;;;;;18.80;42.90;;;;;;5087821;28;19919;-70
2022/12/23 09:20:01;;;;;;;;;;;18.80;43.00;;;;;;5072939;28;19986;-69
2022/12/23 09:22:30;;;;;;;;;;;18.80;43.10;;;;;;5063436;28;19939;-69
2022/12/23 09:24:57;;;;;;;;;;;18.80;43.20;;;;;;5064657;28;19927;-71
2022/12/23 09:27:24;;;;;;;;;;;18.80;43.30;;;;;;5066111;28;19923;-69
2022/12/23 09:29:51;;;;;;;;;;;18.80;43.30;;;;;;5069223;28;19920;-70
2022/12/23 09:32:18;;;;;;;;;;;18.90;43.50;;;;;;5065180;28;19924;-70
2022/12/23 09:34:44;;;;;;;;;;;18.90;43.50;;;;;;5071941;28;19920;-69
2022/12/23 09:37:12;;;;;;;;;;;18.90;43.50;;;;;;5086695;28;19920;-68
2022/12/23 09:39:40;;;;;;;;;;;18.90;43.50;;;;;;5065650;28;19924;-69
2022/12/23 09:42:07;;;;;;;;;;;18.90;43.60;;;;;;5064982;28;19920;-70
2022/12/23 09:44:40;;;;;;;;;;;18.90;43.60;;;;;;5064894;28;20377;-68
2022/12/23 09:47:08;;;;;;;;;;;19.00;43.80;;;;;;5066034;28;19958;-69
2022/12/23 09:49:35;;;;;;;;;;;19.00;43.80;;;;;;5062785;28;19921;-68
2022/12/23 09:52:02;;;;;;;;;;;19.00;43.80;;;;;;5061571;28;19929;-68
2022/12/23 09:54:39;;;;;;;;;;;19.00;43.80;;;;;;5065269;28;20153;-70
2022/12/23 09:57:09;;;;;;;;;;;19.00;43.90;;;;;;5061978;28;19921;-68
2022/12/23 09:59:40;;;;;;;;;;;19.00;43.90;;;;;;5050132;28;19920;-68
2022/12/23 10:02:11;;;;;;;;;;;19.00;43.90;;;;;;5061443;28;19965;-68
2022/12/23 10:04:40;;;;;;;;;;;19.10;44.00;;;;;;5082988;28;20603;-68
2022/12/23 10:07:24;;;;;;;;;;;19.10;44.10;;;;;;5082989;28;19927;-67
2022/12/23 10:09:51;;;;;;;;;;;19.10;44.70;;;;;;5064257;28;19965;-69
2022/12/23 10:12:20;;;;;;;;;;;19.10;44.10;;;;;;5091314;28;19920;-68
2022/12/23 10:14:47;;;;;;;;;;;19.10;44.20;;;;;;5081146;28;19924;-67
2022/12/23 10:17:15;;;;;;;;;;;19.10;44.20;;;;;;5075575;28;19987;-68
2022/12/23 10:19:42;;;;;;;;;;;19.10;44.20;;;;;;5067036;28;19923;-68
2022/12/23 10:22:11;;;;;;;;;;;19.10;44.20;;;;;;5077016;28;19931;-68
2022/12/23 10:24:38;;;;;;;;;;;19.10;44.30;;;;;;5064590;28;19919;-69
2022/12/23 10:27:06;;;;;;;;;;;19.20;44.30;;;;;;5067508;28;19966;-69
2022/12/23 10:29:35;;;;;;;;;;;19.20;44.40;;;;;;5066555;28;19970;-70
2022/12/23 10:32:04;;;;;;;;;;;19.20;44.40;;;;;;5072477;28;19925;-67
2022/12/23 10:34:36;;;;;;;;;;;19.20;44.40;;;;;;5066593;28;19959;-69
2022/12/23 10:37:05;;;;;;;;;;;19.20;44.40;;;;;;5047217;28;19970;-70
2022/12/23 10:39:32;;;;;;;;;;;19.20;44.40;;;;;;5065212;28;19924;-71
2022/12/23 10:42:02;;;;;;;;;;;19.20;44.40;;;;;;5064824;28;19981;-70
2022/12/23 10:44:44;;;;;;;;;;;19.20;44.40;;;;;;5057600;28;20420;-70
2022/12/23 10:47:14;;;;;;;;;;;19.30;44.50;;;;;;5077319;28;19920;-70
2022/12/23 10:49:43;;;;;;;;;;;19.20;44.40;;;;;;5077425;28;19978;-70
2022/12/23 10:52:11;;;;;;;;;;;19.30;44.50;;;;;;5080314;28;19920;-69
2022/12/23 10:54:38;;;;;;;;;;;19.30;44.50;;;;;;5083531;28;19920;-69
2022/12/23 10:57:05;;;;;;;;;;;19.30;44.50;;;;;;5072906;28;19932;-68
2022/12/23 10:59:32;;;;;;;;;;;19.30;44.50;;;;;;5090594;28;20366;-70
2022/12/23 11:02:01;;;;;;;;;;;19.30;44.50;;;;;;5066987;28;19924;-70
2022/12/23 11:04:31;;;;;;;;;;;19.30;44.60;;;;;;5087781;28;19985;-70
2022/12/23 11:06:57;;;;;;;;;;;19.30;44.60;;;;;;5064936;28;19928;-70
2022/12/23 11:09:24;;;;;;;;;;;19.30;44.60;;;;;;5057631;28;19927;-68
2022/12/23 11:11:55;;;;;;;;;;;19.30;44.60;;;;;;5085013;28;19924;-67
2022/12/23 11:14:29;;;;;;;;;;;19.30;44.60;;;;;;5069660;28;19920;-69
2022/12/23 11:16:56;;;;;;;;;;;19.30;44.60;;;;;;5076657;28;19931;-68
2022/12/23 11:19:23;;;;;;;;;;;19.30;44.60;;;;;;5083339;28;20242;-67
2022/12/23 11:21:54;;;;;;;;;;;19.30;44.60;;;;;;5085861;28;19924;-66
2022/12/23 11:24:21;;;;;;;;;;;19.40;44.70;;;;;;5061208;28;20311;-66
2022/12/23 11:26:49;;;;;;;;;;;19.30;44.60;;;;;;5066208;28;20007;-70
2022/12/23 11:29:17;;;;;;;;;;;19.30;44.70;;;;;;5079350;28;20421;-69
2022/12/23 11:31:44;;;;;;;;;;;19.40;44.80;;;;;;5061207;28;19969;-69
2022/12/23 11:34:14;;;;;;;;;;;19.40;45.40;;;;;;5065618;28;19920;-68
2022/12/23 11:36:41;;;;;;;;;;;19.40;44.80;;;;;;5055897;28;19974;-69
2022/12/23 11:39:16;;;;;;;;;;;19.40;44.80;;;;;;5068867;28;19922;-68
2022/12/23 11:41:43;;;;;;;;;;;19.40;44.80;;;;;;5063363;28;19924;-70
2022/12/23 11:44:11;;;;;;;;;;;19.40;44.80;;;;;;5077525;28;19920;-67
2022/12/23 11:46:38;;;;;;;;;;;19.40;44.80;;;;;;5086713;28;19936;-68
2022/12/23 11:49:06;;;;;;;;;;;19.40;44.80;;;;;;5073426;28;20020;-72
2022/12/23 11:51:33;;;;;;;;;;;19.40;44.80;;;;;;5069319;28;20308;-69
2022/12/23 11:54:05;;;;;;;;;;;19.40;44.80;;;;;;5062927;28;19929;-70
2022/12/23 11:56:36;;;;;;;;;;;19.40;44.80;;;;;;5087115;28;20000;-68
2022/12/23 11:59:03;;;;;;;;;;;19.40;44.80;;;;;;5063873;28;19920;-69
2022/12/23 12:01:30;;;;;;;;;;;19.40;44.80;;;;;;5060190;28;19928;-69
2022/12/23 12:03:58;;;;;;;;;;;19.40;44.90;;;;;;5082900;28;20309;-69
2022/12/23 12:06:25;;;;;;;;;;;19.40;44.80;;;;;;5084563;28;19920;-67
2022/12/23 12:08:52;;;;;;;;;;;19.40;44.90;;;;;;5062639;28;20012;-69
2022/12/23 12:11:19;;;;;;;;;;;19.50;45.00;;;;;;5061067;28;19944;-68
2022/12/23 12:13:47;;;;;;;;;;;19.40;44.80;;;;;;5060518;28;19924;-68
2022/12/23 12:16:23;;;;;;;;;;;19.50;45.00;;;;;;5061947;28;19924;-68
2022/12/23 12:18:50;;;;;;;;;;;19.50;45.00;;;;;;5073766;28;20019;-68
2022/12/23 12:21:17;;;;;;;;;;;19.40;44.90;;;;;;5067455;28;20064;-68
2022/12/23 12:23:46;;;;;;;;;;;19.50;45.00;;;;;;5064737;28;19970;-68
2022/12/23 12:26:14;;;;;;;;;;;19.40;44.90;;;;;;5069818;28;19924;-68
2022/12/23 12:28:41;;;;;;;;;;;19.50;45.00;;;;;;5072818;28;20022;-68
2022/12/23 12:31:13;;;;;;;;;;;19.40;44.90;;;;;;5083702;28;20010;-68
2022/12/23 12:33:41;;;;;;;;;;;19.50;45.00;;;;;;5066994;28;19978;-67
2022/12/23 12:36:09;;;;;;;;;;;19.50;45.00;;;;;;5064489;28;20278;-68
2022/12/23 12:38:44;;;;;;;;;;;19.50;45.00;;;;;;5068224;28;19923;-69
2022/12/23 12:41:14;;;;;;;;;;;19.50;45.00;;;;;;5063343;28;20044;-69
2022/12/23 12:43:42;;;;;;;;;;;19.50;45.00;;;;;;5087314;28;19924;-69
2022/12/23 12:46:13;;;;;;;;;;;19.40;44.90;;;;;;5075805;28;19965;-68
2022/12/23 12:48:42;;;;;;;;;;;19.50;45.10;;;;;;5080537;28;20019;-68
2022/12/23 12:51:11;;;;;;;;;;;19.50;45.10;;;;;;5083166;28;20312;-69
2022/12/23 12:53:39;;;;;;;;;;;19.40;45.00;;;;;;5064709;28;19966;-68
2022/12/23 12:56:07;;;;;;;;;;;19.50;45.10;;;;;;5090913;28;19992;-67
2022/12/23 12:58:34;;;;;;;;;;;19.40;45.00;;;;;;5061651;28;20023;-68
2022/12/23 13:01:03;;;;;;;;;;;19.50;45.10;;;;;;5060214;28;19956;-67
2022/12/23 13:03:36;;;;;;;;;;;19.50;45.10;;;;;;5061904;28;19920;-67
2022/12/23 13:06:05;;;;;;;;;;;19.50;45.10;;;;;;5065450;28;19966;-67
2022/12/23 13:08:38;;;;;;;;;;;19.50;45.80;;;;;;5070851;28;19920;-67
2022/12/23 13:11:05;;;;;;;;;;;19.50;45.10;;;;;;5073727;28;19954;-67
2022/12/23 13:13:36;;;;;;;;;;;19.50;45.10;;;;;;5070473;28;20055;-67
2022/12/23 13:16:03;;;;;;;;;;;19.50;45.10;;;;;;5076208;28;19955;-71
2022/12/23 13:18:33;;;;;;;;;;;19.50;45.20;;;;;;5064314;28;19955;-67
2022/12/23 13:21:02;;;;;;;;;;;19.50;45.20;;;;;;5060986;28;19973;-67
2022/12/23 13:23:30;;;;;;;;;;;19.50;45.20;;;;;;5080694;28;19920;-70
2022/12/23 13:25:58;;;;;;;;;;;19.50;45.20;;;;;;5074725;28;19963;-68
2022/12/23 13:28:28;;;;;;;;;;;19.50;45.20;;;;;;5074357;28;19932;-68
2022/12/23 13:30:56;;;;;;;;;;;19.60;45.30;;;;;;5059533;28;19921;-68
2022/12/23 13:33:23;;;;;;;;;;;19.60;45.30;;;;;;5073962;28;20011;-68
2022/12/23 13:35:59;;;;;;;;;;;19.60;45.30;;;;;;5067305;28;19944;-68
2022/12/23 13:38:33;;;;;;;;;;;19.60;45.30;;;;;;5077795;28;20016;-67
2022/12/23 13:41:01;;;;;;;;;;;19.60;45.30;;;;;;5077051;28;20012;-70
2022/12/23 13:43:29;;;;;;;;;;;19.60;45.40;;;;;;5079767;28;20007;-69
2022/12/23 13:45:56;;;;;;;;;;;19.60;45.40;;;;;;5058279;28;20005;-69
2022/12/23 13:48:33;;;;;;;;;;;19.60;45.40;;;;;;5068471;28;19928;-70
2022/12/23 13:51:00;;;;;;;;;;;19.60;45.40;;;;;;5072835;28;19925;-69
2022/12/23 13:53:28;;;;;;;;;;;19.60;45.40;;;;;;5076799;28;19967;-68
2022/12/23 13:56:00;;;;;;;;;;;19.60;45.50;;;;;;5085681;28;19963;-70
2022/12/23 13:58:30;;;;;;;;;;;19.60;45.50;;;;;;5072066;28;20002;-69
2022/12/23 14:00:57;;;;;;;;;;;19.60;45.50;;;;;;5067793;28;19982;-68
2022/12/23 14:03:24;;;;;;;;;;;19.60;45.50;;;;;;5070447;28;19946;-70
2022/12/23 14:05:51;;;;;;;;;;;19.60;45.50;;;;;;5067724;28;20003;-69
2022/12/23 14:08:22;;;;;;;;;;;19.60;45.50;;;;;;5072507;28;19932;-69
2022/12/23 14:10:50;;;;;;;;;;;19.60;45.50;;;;;;5065605;28;19931;-70
2022/12/23 14:13:18;;;;;;;;;;;19.60;45.50;;;;;;5094549;28;19932;-68
2022/12/23 14:16:09;;;;;;;;;;;19.70;45.50;;;;;;5065488;28;19993;-72
2022/12/23 14:18:41;;;;;;;;;;;19.60;45.50;;;;;;5053389;28;19963;-71
2022/12/23 14:21:12;;;;;;;;;;;19.70;45.50;;;;;;5068000;28;20887;-68
2022/12/23 14:23:43;;;;;;;;;;;19.60;45.50;;;;;;5087722;28;19924;-68
2022/12/23 14:26:27;;;;;;;;;;;19.60;45.50;;;;;;5064236;28;19925;-69
2022/12/23 14:28:58;;;;;;;;;;;19.60;45.50;;;;;;5073795;28;20305;-69
2022/12/23 14:31:32;;;;;;;;;;;19.70;45.50;;;;;;5060553;28;20345;-70
2022/12/23 14:34:02;;;;;;;;;;;19.70;45.60;;;;;;5069082;28;19958;-70
2022/12/23 14:36:29;;;;;;;;;;;19.60;45.50;;;;;;5078284;28;19920;-69
2022/12/23 14:39:14;;;;;;;;;;;19.60;45.50;;;;;;5076190;28;20013;-68
2022/12/23 14:41:48;;;;;;;;;;;19.70;45.60;;;;;;5069689;28;19932;-70
2022/12/23 14:44:20;;;;;;;;;;;19.70;45.60;;;;;;5082076;28;19942;-69
2022/12/23 14:46:56;;;;;;;;;;;19.70;45.60;;;;;;5065420;28;19939;-69
2022/12/23 14:49:23;;;;;;;;;;;19.70;45.60;;;;;;5099513;28;19919;-68
2022/12/23 14:51:50;;;;;;;;;;;19.70;45.60;;;;;;5063133;28;20011;-70